Time;durP1;ratioP1;P1;durP2;ratioP2;P2;SDS_P1;SDS_P2;PMS_P1;PMS_P2;Temp;Humidity;BMP_temperature;BMP_pressure;BME280_temperature;BME280_humidity;BME280_pressure;Samples;Min_cycle;Max_cycle;Signal;HPM_P1;HPM_P2
2021/05/11 00:01:44;;;;;;;;;;;18.70;62.90;;;;;;5067014;28;1605;-62
2021/05/11 00:04:10;;;;;;;;;;;18.70;62.90;;;;;;5050985;28;1377;-62
2021/05/11 00:06:35;;;;;;;;;;;18.70;63.00;;;;;;5050732;28;1445;-63
2021/05/11 00:09:01;;;;;;;;;;;18.70;63.00;;;;;;5051285;28;1943;-62
2021/05/11 00:11:26;;;;;;;;;;;18.70;63.00;;;;;;5050282;28;1265;-62
2021/05/11 00:13:51;;;;;;;;;;;18.70;63.00;;;;;;5042445;28;1254;-64
2021/05/11 00:16:17;;;;;;;;;;;18.70;63.00;;;;;;5043876;28;1291;-63
2021/05/11 00:18:42;;;;;;;;;;;18.70;63.00;;;;;;5044237;28;1391;-63
2021/05/11 00:21:08;;;;;;;;;;;18.70;63.00;;;;;;5048135;28;1198;-64
2021/05/11 00:23:33;;;;;;;;;;;18.70;63.00;;;;;;5050804;28;1200;-63
2021/05/11 00:25:59;;;;;;;;;;;18.70;63.00;;;;;;5045085;28;1235;-62
2021/05/11 00:28:24;;;;;;;;;;;18.70;63.00;;;;;;5046066;28;1369;-63
2021/05/11 00:30:50;;;;;;;;;;;18.70;63.00;;;;;;5049402;28;1906;-62
2021/05/11 00:33:15;;;;;;;;;;;18.70;63.00;;;;;;5050220;28;1258;-63
2021/05/11 00:35:41;;;;;;;;;;;18.70;63.00;;;;;;5045067;28;1255;-63
2021/05/11 00:38:06;;;;;;;;;;;18.70;63.00;;;;;;5046716;28;1268;-63
2021/05/11 00:40:32;;;;;;;;;;;18.70;63.10;;;;;;5047860;28;1269;-63
2021/05/11 00:42:57;;;;;;;;;;;18.70;63.70;;;;;;5046777;28;1228;-63
2021/05/11 00:45:22;;;;;;;;;;;18.70;63.00;;;;;;5050089;28;1309;-62
2021/05/11 00:47:48;;;;;;;;;;;18.70;63.00;;;;;;5048452;28;1306;-63
2021/05/11 00:50:13;;;;;;;;;;;18.70;63.00;;;;;;5049040;28;1911;-63
2021/05/11 00:52:39;;;;;;;;;;;18.70;63.80;;;;;;5046201;28;1487;-62
2021/05/11 00:55:04;;;;;;;;;;;18.70;63.00;;;;;;5045484;28;1277;-62
2021/05/11 00:57:31;;;;;;;;;;;18.70;63.00;;;;;;5050099;28;1674;-63
2021/05/11 00:59:56;;;;;;;;;;;18.70;63.10;;;;;;5049270;28;1610;-62
2021/05/11 01:02:22;;;;;;;;;;;18.70;63.00;;;;;;5045528;28;1219;-63
2021/05/11 01:04:47;;;;;;;;;;;18.70;63.30;;;;;;5046359;28;1278;-64
2021/05/11 01:07:13;;;;;;;;;;;18.70;63.10;;;;;;5046319;28;1397;-62
2021/05/11 01:09:38;;;;;;;;;;;18.70;63.10;;;;;;5050060;28;1906;-62
2021/05/11 01:12:04;;;;;;;;;;;18.70;63.10;;;;;;5048072;28;1228;-63
2021/05/11 01:14:29;;;;;;;;;;;18.70;63.10;;;;;;5064672;28;1251;-63
2021/05/11 01:16:57;;;;;;;;;;;18.70;63.10;;;;;;5046606;28;1275;-62
2021/05/11 01:19:29;;;;;;;;;;;18.70;63.10;;;;;;5046500;28;1282;-63
2021/05/11 01:24:49;;;;;;;;;;;18.70;63.10;;;;;;5032325;28;1196;-62
2021/05/11 01:54:16;;;;;;;;;;;18.70;63.10;;;;;;5047286;28;1215;-63
2021/05/11 01:57:02;;;;;;;;;;;18.70;63.20;;;;;;5045894;28;1260;-63
2021/05/11 02:23:39;;;;;;;;;;;18.70;63.20;;;;;;5047701;28;1085;-64
2021/05/11 02:26:05;;;;;;;;;;;18.70;63.20;;;;;;5043794;28;1180;-64
2021/05/11 02:28:30;;;;;;;;;;;18.70;63.10;;;;;;5050934;28;1295;-63
2021/05/11 02:30:56;;;;;;;;;;;18.60;63.10;;;;;;5053945;28;1972;-62
2021/05/11 02:33:21;;;;;;;;;;;18.70;63.20;;;;;;5053777;28;1126;-63
2021/05/11 02:35:47;;;;;;;;;;;18.70;63.20;;;;;;5069128;28;1142;-64
2021/05/11 02:38:12;;;;;;;;;;;18.70;63.20;;;;;;5068929;28;1302;-63
2021/05/11 02:40:38;;;;;;;;;;;18.70;63.20;;;;;;5054036;28;1244;-63
2021/05/11 02:43:07;;;;;;;;;;;18.60;63.10;;;;;;5052623;28;1090;-63
2021/05/11 02:45:34;;;;;;;;;;;18.70;63.20;;;;;;5053440;28;1071;-63
2021/05/11 02:48:02;;;;;;;;;;;18.70;63.20;;;;;;5053336;28;1351;-63
2021/05/11 02:50:31;;;;;;;;;;;18.70;63.20;;;;;;5053613;28;1956;-64
2021/05/11 02:52:56;;;;;;;;;;;18.70;63.20;;;;;;5068648;28;1063;-63
2021/05/11 02:55:22;;;;;;;;;;;18.70;63.20;;;;;;5053304;28;1134;-64
2021/05/11 02:57:47;;;;;;;;;;;18.70;63.20;;;;;;5053269;28;1346;-63
2021/05/11 03:00:13;;;;;;;;;;;18.70;63.20;;;;;;5053735;28;1055;-63
2021/05/11 03:02:38;;;;;;;;;;;18.70;63.20;;;;;;5068895;28;1158;-63
2021/05/11 03:05:04;;;;;;;;;;;18.70;63.20;;;;;;5068595;28;1171;-63
2021/05/11 03:07:30;;;;;;;;;;;18.70;63.20;;;;;;5068153;28;1396;-62
2021/05/11 03:09:55;;;;;;;;;;;18.70;63.20;;;;;;5068608;28;1969;-63
2021/05/11 03:12:21;;;;;;;;;;;18.70;63.20;;;;;;5053164;28;1123;-63
2021/05/11 03:14:46;;;;;;;;;;;18.70;63.20;;;;;;5058153;28;1106;-62
2021/05/11 03:17:12;;;;;;;;;;;18.70;63.20;;;;;;5049698;28;1276;-63
2021/05/11 03:19:37;;;;;;;;;;;18.70;63.20;;;;;;5068372;28;1099;-62
2021/05/11 03:22:02;;;;;;;;;;;18.60;63.10;;;;;;5052831;28;1126;-63
2021/05/11 03:24:28;;;;;;;;;;;18.70;63.20;;;;;;5068515;28;1134;-62
2021/05/11 03:26:54;;;;;;;;;;;18.60;63.10;;;;;;5051212;28;1226;-62
2021/05/11 03:29:19;;;;;;;;;;;18.70;63.20;;;;;;5052982;28;1977;-63
2021/05/11 03:31:45;;;;;;;;;;;18.70;63.20;;;;;;5052965;28;1123;-62
2021/05/11 03:34:10;;;;;;;;;;;18.70;63.20;;;;;;5052880;28;1059;-62
2021/05/11 03:36:36;;;;;;;;;;;18.70;63.20;;;;;;5052346;28;1295;-62
2021/05/11 03:39:05;;;;;;;;;;;18.70;63.10;;;;;;5051740;28;1191;-62
2021/05/11 03:41:36;;;;;;;;;;;18.70;63.10;;;;;;5052804;28;1190;-63
2021/05/11 03:44:09;;;;;;;;;;;18.70;63.10;;;;;;5052811;28;1114;-64
2021/05/11 03:46:36;;;;;;;;;;;18.70;63.10;;;;;;5052516;28;1303;-62
2021/05/11 03:49:01;;;;;;;;;;;18.70;63.00;;;;;;5067795;28;1890;-62
2021/05/11 03:51:27;;;;;;;;;;;18.70;63.00;;;;;;5052928;28;1094;-63
2021/05/11 03:53:52;;;;;;;;;;;18.70;63.00;;;;;;5056533;28;1063;-62
2021/05/11 03:56:18;;;;;;;;;;;18.70;62.90;;;;;;5058922;28;1251;-64
2021/05/11 03:58:43;;;;;;;;;;;18.70;62.90;;;;;;5059260;28;1134;-63
2021/05/11 04:01:08;;;;;;;;;;;18.70;62.90;;;;;;5074660;28;1228;-62
2021/05/11 04:03:34;;;;;;;;;;;18.70;62.80;;;;;;5059050;28;1067;-64
2021/05/11 04:06:01;;;;;;;;;;;18.70;62.80;;;;;;5058883;28;1055;-63
2021/05/11 04:08:38;;;;;;;;;;;18.80;62.80;;;;;;5059234;28;1180;-63
2021/05/11 04:16:23;;;;;;;;;;;18.70;62.70;;;;;;5058687;28;1307;-63
2021/05/11 04:18:51;;;;;;;;;;;18.80;62.70;;;;;;5058892;28;1122;-63
2021/05/11 04:21:17;;;;;;;;;;;18.80;62.70;;;;;;5074478;28;1209;-65
2021/05/11 04:23:43;;;;;;;;;;;18.80;62.70;;;;;;5059078;28;1130;-63
2021/05/11 04:26:09;;;;;;;;;;;18.80;62.70;;;;;;5074159;28;933;-63
2021/05/11 04:28:35;;;;;;;;;;;18.80;62.70;;;;;;5074200;28;1334;-65
2021/05/11 04:31:00;;;;;;;;;;;18.80;62.70;;;;;;5059033;28;1969;-63
2021/05/11 04:33:29;;;;;;;;;;;18.80;62.60;;;;;;5058892;28;1123;-63
2021/05/11 04:35:54;;;;;;;;;;;18.80;62.60;;;;;;5058788;28;1137;-63
2021/05/11 04:38:20;;;;;;;;;;;18.80;62.50;;;;;;5058760;28;1351;-63
2021/05/11 04:40:45;;;;;;;;;;;18.80;62.60;;;;;;5059106;28;1095;-63
2021/05/11 04:43:10;;;;;;;;;;;18.80;62.50;;;;;;5074245;28;1161;-63
2021/05/11 04:45:36;;;;;;;;;;;18.80;62.50;;;;;;5074141;28;1071;-64
2021/05/11 04:48:01;;;;;;;;;;;18.80;62.50;;;;;;5058849;28;1261;-63
2021/05/11 04:50:27;;;;;;;;;;;18.80;62.50;;;;;;5058559;28;1898;-63
2021/05/11 04:52:53;;;;;;;;;;;18.80;62.50;;;;;;5059199;28;1161;-63
2021/05/11 04:55:18;;;;;;;;;;;18.80;62.50;;;;;;5058402;28;1102;-64
2021/05/11 04:57:44;;;;;;;;;;;18.80;62.50;;;;;;5058804;28;1282;-63
2021/05/11 05:00:10;;;;;;;;;;;18.80;62.50;;;;;;5074286;28;1091;-63
2021/05/11 05:02:38;;;;;;;;;;;18.80;62.40;;;;;;5058758;28;1134;-63
2021/05/11 05:05:04;;;;;;;;;;;18.80;62.50;;;;;;5071286;28;1079;-62
2021/05/11 05:07:29;;;;;;;;;;;18.80;62.40;;;;;;5055245;28;1384;-62
2021/05/11 05:09:54;;;;;;;;;;;18.80;62.40;;;;;;5055373;28;1894;-64
2021/05/11 05:12:20;;;;;;;;;;;18.80;62.40;;;;;;5055464;28;1054;-63
2021/05/11 05:14:45;;;;;;;;;;;18.80;62.40;;;;;;5055210;28;1141;-63
2021/05/11 05:17:11;;;;;;;;;;;18.80;62.40;;;;;;5054889;28;1802;-63
2021/05/11 05:19:36;;;;;;;;;;;18.80;62.40;;;;;;5055289;28;1103;-62
2021/05/11 05:22:03;;;;;;;;;;;18.80;62.50;;;;;;5046591;28;1796;-62
2021/05/11 05:24:35;;;;;;;;;;;18.80;62.40;;;;;;5054605;28;1141;-62
2021/05/11 05:27:13;;;;;;;;;;;18.80;62.40;;;;;;5054347;28;1330;-62
2021/05/11 05:29:39;;;;;;;;;;;18.80;62.40;;;;;;5054914;28;1902;-63
2021/05/11 05:32:04;;;;;;;;;;;18.80;62.40;;;;;;5055190;28;1133;-62
2021/05/11 05:34:30;;;;;;;;;;;18.80;62.40;;;;;;5055001;28;1142;-62
2021/05/11 05:36:57;;;;;;;;;;;18.80;62.40;;;;;;5054427;28;1354;-63
2021/05/11 05:39:27;;;;;;;;;;;18.80;62.40;;;;;;5054761;28;1142;-63
2021/05/11 05:41:53;;;;;;;;;;;18.90;62.40;;;;;;5055379;28;983;-61
2021/05/11 05:44:18;;;;;;;;;;;18.90;62.40;;;;;;5055123;28;1035;-64
2021/05/11 05:46:44;;;;;;;;;;;18.80;62.30;;;;;;5054470;28;1255;-64
2021/05/11 05:49:09;;;;;;;;;;;18.80;62.30;;;;;;5054775;28;1921;-63
2021/05/11 05:51:35;;;;;;;;;;;18.90;62.40;;;;;;5054924;28;1118;-63
2021/05/11 05:54:00;;;;;;;;;;;18.90;62.40;;;;;;5054434;28;1059;-64
2021/05/11 05:56:25;;;;;;;;;;;18.90;62.40;;;;;;5052719;28;1278;-63
2021/05/11 05:58:51;;;;;;;;;;;18.80;62.30;;;;;;5070383;28;1150;-63
2021/05/11 06:01:16;;;;;;;;;;;18.90;62.40;;;;;;5054466;28;1130;-63
2021/05/11 06:06:10;;;;;;;;;;;18.80;62.30;;;;;;5054144;28;1095;-63
2021/05/11 06:08:37;;;;;;;;;;;18.90;62.40;;;;;;5054180;28;1282;-63
2021/05/11 06:11:11;;;;;;;;;;;18.90;62.40;;;;;;5069529;28;1898;-66
2021/05/11 06:13:41;;;;;;;;;;;18.90;62.40;;;;;;5054075;28;1098;-66
2021/05/11 06:18:51;;;;;;;;;;;18.90;63.10;;;;;;5053824;28;1105;-61
2021/05/11 06:21:16;;;;;;;;;;;19.00;63.40;;;;;;5069462;28;1197;-64
2021/05/11 06:23:42;;;;;;;;;;;19.00;63.40;;;;;;5053926;28;1186;-63
2021/05/11 06:26:09;;;;;;;;;;;19.00;63.50;;;;;;5053662;28;1090;-63
2021/05/11 06:28:38;;;;;;;;;;;19.10;63.60;;;;;;5053875;28;1333;-62
2021/05/11 06:31:03;;;;;;;;;;;19.10;64.00;;;;;;5052535;28;1975;-63
2021/05/11 06:33:29;;;;;;;;;;;19.10;63.90;;;;;;5053914;28;988;-61
2021/05/11 06:35:54;;;;;;;;;;;19.10;63.70;;;;;;5053104;28;1129;-63
2021/05/11 06:38:20;;;;;;;;;;;19.10;64.10;;;;;;5053492;28;1288;-65
2021/05/11 06:40:46;;;;;;;;;;;19.20;63.90;;;;;;5050862;28;1944;-63
2021/05/11 06:43:12;;;;;;;;;;;19.20;63.50;;;;;;5053571;28;1182;-63
2021/05/11 06:48:27;;;;;;;;;;;19.30;64.00;;;;;;5053314;28;1240;-62
2021/05/11 06:52:44;;;;;;;;;;;19.30;64.00;;;;;;5053554;28;1890;-62
2021/05/11 06:53:44;;;;;;;;;;;19.30;64.00;;;;;;5053383;28;1255;-63
2021/05/11 06:56:12;;;;;;;;;;;19.40;64.20;;;;;;5051900;28;1095;-62
2021/05/11 06:58:37;;;;;;;;;;;19.40;64.20;;;;;;5052211;28;1343;-63
2021/05/11 07:01:03;;;;;;;;;;;19.40;64.40;;;;;;5053318;28;1225;-63
2021/05/11 07:03:28;;;;;;;;;;;19.40;64.30;;;;;;5052078;28;1060;-62
2021/05/11 07:05:54;;;;;;;;;;;19.40;64.40;;;;;;5053327;28;1201;-63
2021/05/11 07:08:31;;;;;;;;;;;19.40;64.60;;;;;;5053237;28;1274;-63
2021/05/11 07:10:58;;;;;;;;;;;19.40;64.90;;;;;;5052975;28;1961;-65
2021/05/11 07:13:23;;;;;;;;;;;19.40;64.50;;;;;;5052026;28;1076;-63
2021/05/11 07:15:50;;;;;;;;;;;19.50;64.80;;;;;;5052735;28;1212;-63
2021/05/11 07:18:34;;;;;;;;;;;19.50;64.70;;;;;;5053639;28;1184;-64
2021/05/11 07:21:00;;;;;;;;;;;19.50;64.30;;;;;;5052939;28;1126;-64
2021/05/11 07:23:26;;;;;;;;;;;19.50;63.80;;;;;;5052957;28;1043;-63
2021/05/11 07:28:43;;;;;;;;;;;19.60;64.40;;;;;;5052742;28;1205;-63
2021/05/11 07:31:08;;;;;;;;;;;19.50;64.30;;;;;;5052832;28;1906;-63
2021/05/11 07:33:45;;;;;;;;;;;19.50;64.10;;;;;;5052853;28;1195;-63
2021/05/11 07:36:11;;;;;;;;;;;19.60;63.90;;;;;;5052279;28;1098;-64
2021/05/11 07:38:37;;;;;;;;;;;19.60;64.10;;;;;;5052802;28;1183;-63
2021/05/11 07:41:03;;;;;;;;;;;19.60;63.80;;;;;;5068281;28;1087;-63
2021/05/11 07:43:30;;;;;;;;;;;19.60;64.00;;;;;;5052858;28;1119;-63
2021/05/11 08:05:18;;;;;;;;;;;19.70;64.60;;;;;;5033005;28;1497;-65
2021/05/11 08:10:34;;;;;;;;;;;19.80;63.50;;;;;;5052274;28;1972;-65
2021/05/11 08:15:51;;;;;;;;;;;19.80;62.90;;;;;;5051945;28;1271;-65
2021/05/11 08:18:28;;;;;;;;;;;19.90;62.90;;;;;;5052260;28;1227;-64
2021/05/11 08:27:29;;;;;;;;;;;19.90;64.50;;;;;;5052340;28;1194;-64
2021/05/11 08:29:13;;;;;;;;;;;20.00;63.00;;;;;;5052157;28;1902;-65
2021/05/11 08:31:40;;;;;;;;;;;20.00;64.00;;;;;;5052337;28;1268;-65
2021/05/11 08:34:05;;;;;;;;;;;20.10;63.50;;;;;;5052194;28;1134;-64
2021/05/11 08:36:31;;;;;;;;;;;20.10;63.20;;;;;;5051787;28;1338;-65
2021/05/11 08:38:58;;;;;;;;;;;20.10;62.30;;;;;;5051956;28;1071;-65
2021/05/11 08:41:23;;;;;;;;;;;20.10;63.80;;;;;;5054956;28;1157;-65
2021/05/11 08:43:49;;;;;;;;;;;20.30;64.40;;;;;;5071445;28;1130;-65
2021/05/11 08:46:14;;;;;;;;;;;20.30;63.40;;;;;;5070877;28;1200;-65
2021/05/11 08:48:40;;;;;;;;;;;20.30;63.00;;;;;;5071317;28;1301;-65
2021/05/11 09:24:34;;;;;;;;;;;20.90;60.30;;;;;;5055391;28;1122;-63
2021/05/11 09:26:53;;;;;;;;;;;20.90;61.10;;;;;;5067088;28;1374;-63
2021/05/11 09:29:27;;;;;;;;;;;20.90;60.40;;;;;;5055320;28;1913;-64
2021/05/11 09:32:03;;;;;;;;;;;20.70;60.20;;;;;;5055133;28;1040;-64
2021/05/11 09:34:37;;;;;;;;;;;20.70;61.90;;;;;;5054596;28;1130;-64
2021/05/11 09:50:56;;;;;;;;;;;20.70;62.10;;;;;;5054488;28;948;-63
2021/05/11 09:54:32;;;;;;;;;;;20.70;63.10;;;;;;5067920;28;1134;-63
2021/05/11 10:00:31;;;;;;;;;;;20.70;61.00;;;;;;5054492;28;1142;-63
2021/05/11 10:39:07;;;;;;;;;;;21.20;59.20;;;;;;5049093;28;1665;-63
2021/05/11 10:49:20;;;;;;;;;;;21.40;59.10;;;;;;5046441;28;1964;-63
2021/05/11 10:51:45;;;;;;;;;;;21.40;59.80;;;;;;5046633;28;2125;-63
2021/05/11 10:54:13;;;;;;;;;;;21.40;58.80;;;;;;5047792;28;1599;-63
2021/05/11 10:56:43;;;;;;;;;;;21.50;58.40;;;;;;5051903;28;1876;-63
2021/05/11 10:59:41;;;;;;;;;;;21.60;59.30;;;;;;5047618;28;1666;-64
2021/05/11 11:05:11;;;;;;;;;;;21.70;60.20;;;;;;4991511;28;1979;-63
2021/05/11 11:07:37;;;;;;;;;;;21.60;59.30;;;;;;5009953;28;1707;-63
2021/05/11 11:10:07;;;;;;;;;;;21.50;61.10;;;;;;5013665;28;2444;-63
2021/05/11 11:12:41;;;;;;;;;;;21.40;60.30;;;;;;5053383;28;1324;-63
2021/05/11 11:15:11;;;;;;;;;;;21.50;61.60;;;;;;5064584;28;1470;-63
2021/05/11 11:17:40;;;;;;;;;;;21.50;61.30;;;;;;5038606;28;1634;-64
2021/05/11 11:20:09;;;;;;;;;;;21.60;60.40;;;;;;5046806;28;1260;-64
2021/05/11 11:25:18;;;;;;;;;;;21.70;60.80;;;;;;5051872;28;1209;-63
2021/05/11 11:27:46;;;;;;;;;;;21.60;59.70;;;;;;5067587;28;1429;-62
2021/05/11 11:30:12;;;;;;;;;;;21.70;60.00;;;;;;5068449;28;1969;-63
2021/05/11 11:32:37;;;;;;;;;;;21.70;60.80;;;;;;5048831;28;1960;-62
2021/05/11 11:35:03;;;;;;;;;;;21.70;61.40;;;;;;5051498;28;1673;-63
2021/05/11 11:37:30;;;;;;;;;;;21.70;62.60;;;;;;5051585;28;1650;-62
2021/05/11 11:39:56;;;;;;;;;;;21.70;61.40;;;;;;5051318;28;1325;-62
2021/05/11 11:42:49;;;;;;;;;;;21.70;61.60;;;;;;5052052;28;1386;-63
2021/05/11 11:45:20;;;;;;;;;;;21.80;60.50;;;;;;5044263;28;1608;-62
2021/05/11 11:48:10;;;;;;;;;;;21.70;60.70;;;;;;5051345;28;1627;-63
2021/05/11 11:50:38;;;;;;;;;;;21.70;61.60;;;;;;5045492;28;2182;-63
2021/05/11 11:53:15;;;;;;;;;;;21.60;63.70;;;;;;5051486;28;1473;-63
2021/05/11 11:58:20;;;;;;;;;;;21.60;62.00;;;;;;5037694;28;2123;-62
2021/05/11 12:00:45;;;;;;;;;;;21.60;62.60;;;;;;5051345;28;1509;-64
2021/05/11 12:03:12;;;;;;;;;;;21.50;61.80;;;;;;5051572;28;1570;-62
2021/05/11 12:05:57;;;;;;;;;;;21.50;62.30;;;;;;5051362;28;1405;-63
2021/05/11 12:08:29;;;;;;;;;;;21.50;64.50;;;;;;5044802;28;1394;-63
2021/05/11 12:10:55;;;;;;;;;;;21.60;62.40;;;;;;5050310;28;1955;-63
2021/05/11 12:13:21;;;;;;;;;;;21.60;61.20;;;;;;5051622;28;1665;-63
2021/05/11 12:16:06;;;;;;;;;;;21.60;61.00;;;;;;5053393;28;1615;-64
2021/05/11 12:18:32;;;;;;;;;;;21.60;60.40;;;;;;5055555;28;1431;-62
2021/05/11 12:20:59;;;;;;;;;;;21.70;60.60;;;;;;5070825;28;1416;-63
2021/05/11 12:23:24;;;;;;;;;;;21.80;60.60;;;;;;5054288;28;1579;-63
2021/05/11 12:26:05;;;;;;;;;;;21.80;61.00;;;;;;5051638;28;1517;-63
2021/05/11 12:28:34;;;;;;;;;;;21.70;60.50;;;;;;5048412;28;1460;-64
2021/05/11 12:31:00;;;;;;;;;;;21.70;61.40;;;;;;5031925;28;1961;-63
2021/05/11 12:33:33;;;;;;;;;;;21.70;59.80;;;;;;5051136;28;1311;-63
2021/05/11 12:36:00;;;;;;;;;;;21.80;59.80;;;;;;5055014;28;1480;-63
2021/05/11 12:38:27;;;;;;;;;;;21.80;59.80;;;;;;5055106;28;1600;-63
2021/05/11 12:43:40;;;;;;;;;;;21.80;60.20;;;;;;5055431;28;1557;-63
2021/05/11 12:46:14;;;;;;;;;;;21.80;60.20;;;;;;5042356;28;1655;-64
2021/05/11 12:48:58;;;;;;;;;;;21.80;59.50;;;;;;5054864;28;1461;-63
2021/05/11 12:51:30;;;;;;;;;;;21.80;60.20;;;;;;5054924;28;1367;-64
2021/05/11 12:53:57;;;;;;;;;;;21.70;60.90;;;;;;5048727;28;1574;-64
2021/05/11 12:56:43;;;;;;;;;;;21.70;63.00;;;;;;5044741;28;1292;-64
2021/05/11 12:59:12;;;;;;;;;;;21.80;60.30;;;;;;5046797;28;1375;-65
2021/05/11 13:23:05;;;;;;;;;;;21.80;59.80;;;;;;5046329;28;1251;-65
2021/05/11 13:25:35;;;;;;;;;;;21.80;59.80;;;;;;5044465;28;1069;-65
2021/05/11 13:28:10;;;;;;;;;;;21.80;59.20;;;;;;5053598;28;1487;-67
2021/05/11 13:30:50;;;;;;;;;;;21.80;60.40;;;;;;5053260;28;1960;-66
2021/05/11 13:33:43;;;;;;;;;;;21.80;60.10;;;;;;5054275;28;1075;-66
2021/05/11 13:36:08;;;;;;;;;;;21.70;59.80;;;;;;5053624;28;1051;-66
2021/05/11 13:38:34;;;;;;;;;;;21.70;62.20;;;;;;5054113;28;1365;-66
2021/05/11 13:41:00;;;;;;;;;;;21.70;61.90;;;;;;5053601;28;1043;-65
2021/05/11 13:43:27;;;;;;;;;;;21.70;61.00;;;;;;5053760;28;1075;-66
2021/05/11 13:45:52;;;;;;;;;;;21.70;60.10;;;;;;5053286;28;1102;-67
2021/05/11 13:48:24;;;;;;;;;;;21.60;60.00;;;;;;5053588;28;1281;-66
2021/05/11 13:53:28;;;;;;;;;;;21.30;60.90;;;;;;5053547;28;1023;-65
2021/05/11 14:03:50;;;;;;;;;;;20.90;62.50;;;;;;5053275;28;1129;-65
2021/05/11 14:06:15;;;;;;;;;;;20.80;62.80;;;;;;5053573;28;1102;-66
2021/05/11 14:08:41;;;;;;;;;;;20.70;63.00;;;;;;5053278;28;1217;-66
2021/05/11 14:11:06;;;;;;;;;;;20.70;63.10;;;;;;5053286;28;1886;-66
2021/05/11 14:13:32;;;;;;;;;;;20.60;63.20;;;;;;5053242;28;1051;-65
2021/05/11 14:15:57;;;;;;;;;;;20.60;64.10;;;;;;5051358;28;1116;-65
2021/05/11 14:18:22;;;;;;;;;;;20.50;63.40;;;;;;5052573;28;1241;-65
2021/05/11 14:20:48;;;;;;;;;;;20.50;63.50;;;;;;5052681;28;1210;-66
2021/05/11 14:23:16;;;;;;;;;;;20.40;63.50;;;;;;5053001;28;1039;-66
2021/05/11 14:25:41;;;;;;;;;;;20.40;63.60;;;;;;5052969;28;1043;-66
2021/05/11 14:28:07;;;;;;;;;;;20.40;63.70;;;;;;5050231;28;1351;-65
2021/05/11 14:30:32;;;;;;;;;;;20.40;63.70;;;;;;5052132;28;1922;-66
2021/05/11 14:32:58;;;;;;;;;;;20.30;63.70;;;;;;5052445;28;1114;-66
2021/05/11 14:35:23;;;;;;;;;;;20.30;63.80;;;;;;5052108;28;1178;-66
2021/05/11 14:37:49;;;;;;;;;;;20.30;63.70;;;;;;5052537;28;1381;-66
2021/05/11 14:40:15;;;;;;;;;;;20.30;63.70;;;;;;5052300;28;1079;-65
2021/05/11 14:42:41;;;;;;;;;;;20.20;63.80;;;;;;5052473;28;1161;-65
2021/05/11 14:45:07;;;;;;;;;;;20.20;64.50;;;;;;5051986;28;1069;-64
2021/05/11 14:47:32;;;;;;;;;;;20.20;63.60;;;;;;5051897;28;1361;-65
2021/05/11 14:49:58;;;;;;;;;;;20.20;63.70;;;;;;5052189;28;1961;-66
2021/05/11 14:52:26;;;;;;;;;;;20.20;63.60;;;;;;5051114;28;1067;-65
2021/05/11 14:54:51;;;;;;;;;;;20.20;63.60;;;;;;5047912;28;1173;-67
2021/05/11 14:57:16;;;;;;;;;;;20.10;63.50;;;;;;5042896;28;1421;-66
2021/05/11 14:59:42;;;;;;;;;;;20.10;63.50;;;;;;5045005;28;1177;-66
2021/05/11 15:02:11;;;;;;;;;;;20.10;63.50;;;;;;5043484;28;1215;-65
2021/05/11 15:04:37;;;;;;;;;;;20.10;63.50;;;;;;5047782;28;1098;-66
2021/05/11 15:07:02;;;;;;;;;;;20.10;63.40;;;;;;5044554;28;1366;-65
2021/05/11 15:09:28;;;;;;;;;;;20.10;63.40;;;;;;5048527;28;1895;-66
2021/05/11 15:11:53;;;;;;;;;;;20.10;63.50;;;;;;5043754;28;1321;-66
2021/05/11 15:14:19;;;;;;;;;;;20.10;63.40;;;;;;5052656;28;1147;-66
2021/05/11 15:16:45;;;;;;;;;;;20.10;63.40;;;;;;5052353;28;1381;-65
2021/05/11 15:19:11;;;;;;;;;;;20.00;63.30;;;;;;5053200;28;1206;-66
2021/05/11 15:21:36;;;;;;;;;;;20.00;63.40;;;;;;5052904;28;1122;-65
2021/05/11 15:24:02;;;;;;;;;;;20.10;63.40;;;;;;5052038;28;1210;-66
2021/05/11 15:26:31;;;;;;;;;;;20.00;63.40;;;;;;5067954;28;1273;-65
2021/05/11 15:28:57;;;;;;;;;;;20.00;63.40;;;;;;5053000;28;1067;-65
2021/05/11 15:31:22;;;;;;;;;;;20.00;63.30;;;;;;5052514;28;1926;-65
2021/05/11 15:33:47;;;;;;;;;;;20.00;63.30;;;;;;5051721;28;1108;-66
2021/05/11 15:36:13;;;;;;;;;;;20.00;63.40;;;;;;5067374;28;1019;-66
2021/05/11 15:38:38;;;;;;;;;;;20.00;63.40;;;;;;5051924;28;1206;-65
2021/05/11 15:41:04;;;;;;;;;;;20.00;63.40;;;;;;5052948;28;1114;-65
2021/05/11 15:43:29;;;;;;;;;;;20.00;63.40;;;;;;5052714;28;1063;-66
2021/05/11 15:45:55;;;;;;;;;;;20.00;63.40;;;;;;5052412;28;1103;-65
2021/05/11 15:48:20;;;;;;;;;;;20.00;63.40;;;;;;5052331;28;1305;-65
2021/05/11 15:50:46;;;;;;;;;;;20.00;63.40;;;;;;5052399;28;1894;-64
2021/05/11 15:53:12;;;;;;;;;;;20.00;63.40;;;;;;5052820;28;1099;-66
2021/05/11 15:55:39;;;;;;;;;;;19.90;63.30;;;;;;5052437;28;1005;-67
2021/05/11 15:58:05;;;;;;;;;;;19.90;63.30;;;;;;5068013;28;1309;-66
2021/05/11 16:00:30;;;;;;;;;;;19.90;63.40;;;;;;5067981;28;1107;-66
2021/05/11 16:02:56;;;;;;;;;;;19.90;63.30;;;;;;5052720;28;1189;-66
2021/05/11 16:05:21;;;;;;;;;;;19.90;63.40;;;;;;5067894;28;1130;-66
2021/05/11 16:07:48;;;;;;;;;;;19.90;63.30;;;;;;5067976;28;1294;-66
2021/05/11 16:10:13;;;;;;;;;;;19.90;63.30;;;;;;5052987;28;1902;-66
2021/05/11 16:12:38;;;;;;;;;;;19.90;63.30;;;;;;5048273;28;1872;-66
2021/05/11 16:15:11;;;;;;;;;;;19.90;63.40;;;;;;5051170;28;1142;-67
2021/05/11 16:17:36;;;;;;;;;;;19.90;63.30;;;;;;5051297;28;1299;-65
2021/05/11 16:20:03;;;;;;;;;;;19.90;63.30;;;;;;5045872;28;1593;-66
2021/05/11 16:22:28;;;;;;;;;;;19.90;63.30;;;;;;5051351;28;1355;-67
2021/05/11 16:24:54;;;;;;;;;;;19.90;63.30;;;;;;5051224;28;1134;-65
2021/05/11 16:27:19;;;;;;;;;;;19.90;63.30;;;;;;5051091;28;1292;-64
2021/05/11 16:29:45;;;;;;;;;;;19.90;63.30;;;;;;5050950;28;1957;-65
2021/05/11 16:32:12;;;;;;;;;;;19.90;63.40;;;;;;5051445;28;1039;-65
2021/05/11 16:34:41;;;;;;;;;;;19.90;63.30;;;;;;5051299;28;1118;-65
2021/05/11 16:37:07;;;;;;;;;;;19.80;63.30;;;;;;5050938;28;1354;-64
2021/05/11 16:39:32;;;;;;;;;;;19.80;63.30;;;;;;5051170;28;1060;-66
2021/05/11 16:41:58;;;;;;;;;;;19.90;63.30;;;;;;5050939;28;1063;-63
2021/05/11 16:44:23;;;;;;;;;;;19.90;64.10;;;;;;5051234;28;1176;-65
2021/05/11 16:46:49;;;;;;;;;;;19.80;63.30;;;;;;5050865;28;1382;-65
2021/05/11 16:49:14;;;;;;;;;;;19.80;63.20;;;;;;5066489;28;1965;-64
2021/05/11 16:51:40;;;;;;;;;;;19.80;63.30;;;;;;5066486;28;1233;-63
2021/05/11 16:54:05;;;;;;;;;;;19.80;63.30;;;;;;5051236;28;1054;-64
2021/05/11 16:56:31;;;;;;;;;;;19.80;63.30;;;;;;5050357;28;1286;-63
2021/05/11 16:58:56;;;;;;;;;;;19.80;63.30;;;;;;5044686;28;1432;-63
2021/05/11 17:01:21;;;;;;;;;;;19.80;63.30;;;;;;5053121;28;1235;-62
2021/05/11 17:03:47;;;;;;;;;;;19.80;63.30;;;;;;5048815;28;1382;-64
2021/05/11 17:06:12;;;;;;;;;;;19.80;63.30;;;;;;5066457;28;1251;-64
2021/05/11 17:08:38;;;;;;;;;;;19.80;63.30;;;;;;5050767;28;2138;-64
2021/05/11 17:11:03;;;;;;;;;;;19.80;63.30;;;;;;5052137;28;1894;-64
2021/05/11 17:13:29;;;;;;;;;;;19.80;63.30;;;;;;5046728;28;1939;-65
2021/05/11 17:15:55;;;;;;;;;;;19.80;63.30;;;;;;5049468;28;1848;-66
2021/05/11 17:18:21;;;;;;;;;;;19.80;63.30;;;;;;5053183;28;1379;-63
2021/05/11 17:20:49;;;;;;;;;;;19.80;63.30;;;;;;5064262;28;1281;-67
2021/05/11 17:23:15;;;;;;;;;;;19.80;63.30;;;;;;5053293;28;1216;-66
2021/05/11 17:25:43;;;;;;;;;;;19.80;63.30;;;;;;5049797;28;1176;-65
2021/05/11 17:28:10;;;;;;;;;;;19.80;63.30;;;;;;5047806;28;1553;-67
2021/05/11 17:30:38;;;;;;;;;;;19.80;63.40;;;;;;5054669;28;1914;-63
2021/05/11 17:33:04;;;;;;;;;;;19.80;63.30;;;;;;5053086;28;1444;-63
2021/05/11 17:35:29;;;;;;;;;;;19.80;63.30;;;;;;5052037;28;1234;-63
2021/05/11 17:37:55;;;;;;;;;;;19.80;63.30;;;;;;5054967;28;1416;-64
2021/05/11 17:40:21;;;;;;;;;;;19.80;63.30;;;;;;5050632;28;1187;-63
2021/05/11 17:42:46;;;;;;;;;;;19.80;63.40;;;;;;5052971;28;1227;-63
2021/05/11 17:45:13;;;;;;;;;;;19.80;63.30;;;;;;5051249;28;1471;-65
2021/05/11 17:47:38;;;;;;;;;;;19.70;63.20;;;;;;5052047;28;1353;-64
2021/05/11 17:50:04;;;;;;;;;;;19.70;63.30;;;;;;5048325;28;1949;-64
2021/05/11 17:52:30;;;;;;;;;;;19.80;63.40;;;;;;5054061;28;1333;-64
2021/05/11 17:54:55;;;;;;;;;;;19.70;63.30;;;;;;5050565;28;1393;-64
2021/05/11 17:57:21;;;;;;;;;;;19.80;63.40;;;;;;5051698;28;1361;-63
2021/05/11 17:59:46;;;;;;;;;;;19.80;63.40;;;;;;5052574;28;1301;-64
2021/05/11 18:02:12;;;;;;;;;;;19.80;63.40;;;;;;5053189;28;1404;-64
2021/05/11 18:04:38;;;;;;;;;;;19.80;63.40;;;;;;5068791;28;1336;-64
2021/05/11 18:07:04;;;;;;;;;;;19.80;63.40;;;;;;5055057;28;1292;-64
2021/05/11 18:09:29;;;;;;;;;;;19.80;63.40;;;;;;5051217;28;1956;-64
2021/05/11 18:11:55;;;;;;;;;;;19.80;63.40;;;;;;5047091;28;2075;-64
2021/05/11 18:14:20;;;;;;;;;;;19.80;63.40;;;;;;5056145;28;2217;-64
2021/05/11 18:16:46;;;;;;;;;;;19.80;63.40;;;;;;5052536;28;1323;-64
2021/05/11 18:19:11;;;;;;;;;;;19.80;63.40;;;;;;5052811;28;1153;-65
2021/05/11 18:21:36;;;;;;;;;;;19.80;63.40;;;;;;5056968;28;1145;-65
2021/05/11 18:24:02;;;;;;;;;;;19.80;63.40;;;;;;5053361;28;1310;-64
2021/05/11 18:26:29;;;;;;;;;;;19.80;64.10;;;;;;5069904;28;1298;-63
2021/05/11 18:28:54;;;;;;;;;;;19.70;63.40;;;;;;5056047;28;1150;-63
2021/05/11 18:31:20;;;;;;;;;;;19.80;63.40;;;;;;5057609;28;1902;-64